sensor_id;sensor_type;location;lat;lon;timestamp;temperature;humidity
69189;DHT22;56302;52.322;5.926;2023-02-28T00:00:33;-0.50;89.30
69189;DHT22;56302;52.322;5.926;2023-02-28T00:02:59;-0.50;89.30
69189;DHT22;56302;52.322;5.926;2023-02-28T00:05:27;-0.40;89.10
69189;DHT22;56302;52.322;5.926;2023-02-28T00:07:53;-0.40;89.10
69189;DHT22;56302;52.322;5.926;2023-02-28T00:10:20;-0.40;89.30
69189;DHT22;56302;52.322;5.926;2023-02-28T00:12:48;-0.40;89.70
69189;DHT22;56302;52.322;5.926;2023-02-28T00:15:14;-0.40;89.50
69189;DHT22;56302;52.322;5.926;2023-02-28T00:17:39;-0.30;89.20
69189;DHT22;56302;52.322;5.926;2023-02-28T00:20:06;-0.30;89.10
69189;DHT22;56302;52.322;5.926;2023-02-28T00:22:36;-0.20;88.90
69189;DHT22;56302;52.322;5.926;2023-02-28T00:25:02;-0.20;89.10
69189;DHT22;56302;52.322;5.926;2023-02-28T00:27:27;-0.20;89.10
69189;DHT22;56302;52.322;5.926;2023-02-28T00:29:53;-0.20;88.90
69189;DHT22;56302;52.322;5.926;2023-02-28T00:32:19;-0.20;89.40
69189;DHT22;56302;52.322;5.926;2023-02-28T00:34:45;-0.20;89.30
69189;DHT22;56302;52.322;5.926;2023-02-28T00:37:10;-0.20;89.60
69189;DHT22;56302;52.322;5.926;2023-02-28T00:39:37;-0.20;89.90
69189;DHT22;56302;52.322;5.926;2023-02-28T00:42:04;-0.10;89.30
69189;DHT22;56302;52.322;5.926;2023-02-28T00:44:30;-0.10;89.10
69189;DHT22;56302;52.322;5.926;2023-02-28T00:46:56;-0.10;88.90
69189;DHT22;56302;52.322;5.926;2023-02-28T00:49:21;-0.10;88.50
69189;DHT22;56302;52.322;5.926;2023-02-28T00:51:47;0.00;88.40
69189;DHT22;56302;52.322;5.926;2023-02-28T00:54:13;0.00;88.30
69189;DHT22;56302;52.322;5.926;2023-02-28T00:56:38;0.00;88.20
69189;DHT22;56302;52.322;5.926;2023-02-28T00:59:04;0.00;88.80
69189;DHT22;56302;52.322;5.926;2023-02-28T01:01:29;0.00;89.00
69189;DHT22;56302;52.322;5.926;2023-02-28T01:03:55;0.10;89.00
69189;DHT22;56302;52.322;5.926;2023-02-28T01:06:21;0.10;88.60
69189;DHT22;56302;52.322;5.926;2023-02-28T01:08:46;0.10;88.80
69189;DHT22;56302;52.322;5.926;2023-02-28T01:11:14;0.10;88.80
69189;DHT22;56302;52.322;5.926;2023-02-28T01:13:41;0.10;89.10
69189;DHT22;56302;52.322;5.926;2023-02-28T01:16:06;0.10;89.80
69189;DHT22;56302;52.322;5.926;2023-02-28T01:18:32;0.10;90.20
69189;DHT22;56302;52.322;5.926;2023-02-28T01:20:58;0.10;90.10
69189;DHT22;56302;52.322;5.926;2023-02-28T01:23:24;0.10;90.30
69189;DHT22;56302;52.322;5.926;2023-02-28T01:25:50;0.20;90.60
69189;DHT22;56302;52.322;5.926;2023-02-28T01:28:16;0.20;90.30
69189;DHT22;56302;52.322;5.926;2023-02-28T01:30:41;0.20;90.10
69189;DHT22;56302;52.322;5.926;2023-02-28T01:33:07;0.20;90.70
69189;DHT22;56302;52.322;5.926;2023-02-28T01:35:34;0.20;90.80
69189;DHT22;56302;52.322;5.926;2023-02-28T01:38:00;0.20;90.80
69189;DHT22;56302;52.322;5.926;2023-02-28T01:40:25;0.20;91.30
69189;DHT22;56302;52.322;5.926;2023-02-28T01:42:51;0.20;91.60
69189;DHT22;56302;52.322;5.926;2023-02-28T01:45:24;0.20;91.60
69189;DHT22;56302;52.322;5.926;2023-02-28T01:47:54;0.20;90.90
69189;DHT22;56302;52.322;5.926;2023-02-28T01:50:24;0.30;90.10
69189;DHT22;56302;52.322;5.926;2023-02-28T01:52:51;0.30;89.80
69189;DHT22;56302;52.322;5.926;2023-02-28T01:55:21;0.30;89.50
69189;DHT22;56302;52.322;5.926;2023-02-28T01:57:53;0.40;89.30
69189;DHT22;56302;52.322;5.926;2023-02-28T02:00:23;0.40;89.10
69189;DHT22;56302;52.322;5.926;2023-02-28T02:02:51;0.40;89.60
69189;DHT22;56302;52.322;5.926;2023-02-28T02:05:21;0.30;89.90
69189;DHT22;56302;52.322;5.926;2023-02-28T02:07:54;0.30;89.80
69189;DHT22;56302;52.322;5.926;2023-02-28T02:13:05;0.40;89.80
69189;DHT22;56302;52.322;5.926;2023-02-28T02:15:54;0.40;90.00
69189;DHT22;56302;52.322;5.926;2023-02-28T02:18:42;0.40;90.60
69189;DHT22;56302;52.322;5.926;2023-02-28T02:21:47;0.30;91.30
69189;DHT22;56302;52.322;5.926;2023-02-28T02:26:55;0.40;90.70
69189;DHT22;56302;52.322;5.926;2023-02-28T02:29:41;0.40;90.30
69189;DHT22;56302;52.322;5.926;2023-02-28T02:35:31;0.50;89.80
69189;DHT22;56302;52.322;5.926;2023-02-28T02:41:01;0.50;90.20
69189;DHT22;56302;52.322;5.926;2023-02-28T02:43:35;0.50;90.10
69189;DHT22;56302;52.322;5.926;2023-02-28T02:46:14;0.50;90.10
69189;DHT22;56302;52.322;5.926;2023-02-28T02:48:42;0.50;90.20
69189;DHT22;56302;52.322;5.926;2023-02-28T02:51:14;0.50;90.30
69189;DHT22;56302;52.322;5.926;2023-02-28T02:53:57;0.50;90.60
69189;DHT22;56302;52.322;5.926;2023-02-28T02:56:27;0.50;90.30
69189;DHT22;56302;52.322;5.926;2023-02-28T02:58:57;0.60;90.10
69189;DHT22;56302;52.322;5.926;2023-02-28T03:01:25;0.60;89.90
69189;DHT22;56302;52.322;5.926;2023-02-28T03:04:08;0.60;89.60
69189;DHT22;56302;52.322;5.926;2023-02-28T03:06:34;0.60;90.00
69189;DHT22;56302;52.322;5.926;2023-02-28T03:09:00;0.60;90.10
69189;DHT22;56302;52.322;5.926;2023-02-28T03:11:27;0.60;90.00
69189;DHT22;56302;52.322;5.926;2023-02-28T03:17:17;0.50;91.90
69189;DHT22;56302;52.322;5.926;2023-02-28T03:20:02;0.50;92.30
69189;DHT22;56302;52.322;5.926;2023-02-28T03:25:29;0.50;92.50
69189;DHT22;56302;52.322;5.926;2023-02-28T03:28:04;0.50;92.50
69189;DHT22;56302;52.322;5.926;2023-02-28T03:30:41;0.60;92.20
69189;DHT22;56302;52.322;5.926;2023-02-28T03:33:16;0.50;92.20
69189;DHT22;56302;52.322;5.926;2023-02-28T03:35:52;0.60;92.20
69189;DHT22;56302;52.322;5.926;2023-02-28T03:38:33;0.60;92.10
69189;DHT22;56302;52.322;5.926;2023-02-28T03:41:14;0.60;91.90
69189;DHT22;56302;52.322;5.926;2023-02-28T03:43:46;0.60;92.10
69189;DHT22;56302;52.322;5.926;2023-02-28T03:46:18;0.60;92.50
69189;DHT22;56302;52.322;5.926;2023-02-28T03:48:53;0.50;92.70
69189;DHT22;56302;52.322;5.926;2023-02-28T03:51:23;0.50;93.40
69189;DHT22;56302;52.322;5.926;2023-02-28T03:54:07;0.50;93.50
69189;DHT22;56302;52.322;5.926;2023-02-28T03:56:54;0.60;93.20
69189;DHT22;56302;52.322;5.926;2023-02-28T03:59:31;0.60;92.90
69189;DHT22;56302;52.322;5.926;2023-02-28T04:01:57;0.60;93.00
69189;DHT22;56302;52.322;5.926;2023-02-28T04:04:23;0.60;93.10
69189;DHT22;56302;52.322;5.926;2023-02-28T04:06:50;0.60;93.20
69189;DHT22;56302;52.322;5.926;2023-02-28T04:09:16;0.70;92.80
69189;DHT22;56302;52.322;5.926;2023-02-28T04:11:45;0.70;92.80
69189;DHT22;56302;52.322;5.926;2023-02-28T04:14:11;0.70;92.70
69189;DHT22;56302;52.322;5.926;2023-02-28T04:16:39;0.70;92.80
69189;DHT22;56302;52.322;5.926;2023-02-28T04:19:07;0.70;92.70
69189;DHT22;56302;52.322;5.926;2023-02-28T04:21:35;0.70;92.90
69189;DHT22;56302;52.322;5.926;2023-02-28T04:24:01;0.70;92.60
69189;DHT22;56302;52.322;5.926;2023-02-28T04:26:35;0.70;92.10
69189;DHT22;56302;52.322;5.926;2023-02-28T04:29:02;0.70;92.20
69189;DHT22;56302;52.322;5.926;2023-02-28T04:31:27;0.70;91.70
69189;DHT22;56302;52.322;5.926;2023-02-28T04:33:53;0.70;91.60
69189;DHT22;56302;52.322;5.926;2023-02-28T04:36:19;0.70;91.10
69189;DHT22;56302;52.322;5.926;2023-02-28T04:38:45;0.70;90.80
69189;DHT22;56302;52.322;5.926;2023-02-28T04:41:12;0.80;90.70
69189;DHT22;56302;52.322;5.926;2023-02-28T04:43:37;0.80;90.30
69189;DHT22;56302;52.322;5.926;2023-02-28T04:46:19;0.80;90.50
69189;DHT22;56302;52.322;5.926;2023-02-28T04:48:45;0.80;90.60
69189;DHT22;56302;52.322;5.926;2023-02-28T04:51:13;0.80;90.10
69189;DHT22;56302;52.322;5.926;2023-02-28T04:53:40;0.70;89.70
69189;DHT22;56302;52.322;5.926;2023-02-28T04:56:07;0.70;89.80
69189;DHT22;56302;52.322;5.926;2023-02-28T04:58:33;0.70;88.80
69189;DHT22;56302;52.322;5.926;2023-02-28T05:01:46;0.70;88.20
69189;DHT22;56302;52.322;5.926;2023-02-28T05:03:53;0.80;87.70
69189;DHT22;56302;52.322;5.926;2023-02-28T05:06:20;0.80;87.70
69189;DHT22;56302;52.322;5.926;2023-02-28T05:08:48;0.80;87.40
69189;DHT22;56302;52.322;5.926;2023-02-28T05:11:34;0.80;87.40
69189;DHT22;56302;52.322;5.926;2023-02-28T05:14:02;0.70;87.70
69189;DHT22;56302;52.322;5.926;2023-02-28T05:16:28;0.70;87.50
69189;DHT22;56302;52.322;5.926;2023-02-28T05:18:54;0.70;87.50
69189;DHT22;56302;52.322;5.926;2023-02-28T05:21:31;0.70;88.00
69189;DHT22;56302;52.322;5.926;2023-02-28T05:24:00;0.70;88.20
69189;DHT22;56302;52.322;5.926;2023-02-28T05:26:26;0.70;88.50
69189;DHT22;56302;52.322;5.926;2023-02-28T05:28:53;0.70;89.20
69189;DHT22;56302;52.322;5.926;2023-02-28T05:31:18;0.80;89.00
69189;DHT22;56302;52.322;5.926;2023-02-28T05:33:44;0.80;88.80
69189;DHT22;56302;52.322;5.926;2023-02-28T05:36:10;0.80;88.80
69189;DHT22;56302;52.322;5.926;2023-02-28T05:38:35;0.80;88.80
69189;DHT22;56302;52.322;5.926;2023-02-28T05:41:05;0.70;88.60
69189;DHT22;56302;52.322;5.926;2023-02-28T05:43:31;0.70;88.40
69189;DHT22;56302;52.322;5.926;2023-02-28T05:45:57;0.70;88.80
69189;DHT22;56302;52.322;5.926;2023-02-28T05:48:22;0.60;89.30
69189;DHT22;56302;52.322;5.926;2023-02-28T05:50:48;0.60;89.70
69189;DHT22;56302;52.322;5.926;2023-02-28T05:53:13;0.70;90.00
69189;DHT22;56302;52.322;5.926;2023-02-28T05:55:39;0.70;89.80
69189;DHT22;56302;52.322;5.926;2023-02-28T05:58:06;0.70;89.50
69189;DHT22;56302;52.322;5.926;2023-02-28T06:00:31;0.70;89.40
69189;DHT22;56302;52.322;5.926;2023-02-28T06:02:57;0.80;89.30
69189;DHT22;56302;52.322;5.926;2023-02-28T06:05:26;0.80;89.10
69189;DHT22;56302;52.322;5.926;2023-02-28T06:07:53;0.70;88.80
69189;DHT22;56302;52.322;5.926;2023-02-28T06:10:18;0.60;88.70
69189;DHT22;56302;52.322;5.926;2023-02-28T06:12:44;0.60;88.80
69189;DHT22;56302;52.322;5.926;2023-02-28T06:15:12;0.60;89.00
69189;DHT22;56302;52.322;5.926;2023-02-28T06:17:38;0.60;89.10
69189;DHT22;56302;52.322;5.926;2023-02-28T06:20:05;0.60;89.20
69189;DHT22;56302;52.322;5.926;2023-02-28T06:22:31;0.60;89.40
69189;DHT22;56302;52.322;5.926;2023-02-28T06:24:57;0.60;89.50
69189;DHT22;56302;52.322;5.926;2023-02-28T06:27:22;0.60;89.30
69189;DHT22;56302;52.322;5.926;2023-02-28T06:29:48;0.60;89.40
69189;DHT22;56302;52.322;5.926;2023-02-28T06:32:14;0.60;89.40
69189;DHT22;56302;52.322;5.926;2023-02-28T06:34:39;0.60;89.70
69189;DHT22;56302;52.322;5.926;2023-02-28T06:37:05;0.60;89.90
69189;DHT22;56302;52.322;5.926;2023-02-28T06:39:31;0.70;89.90
69189;DHT22;56302;52.322;5.926;2023-02-28T06:41:57;0.70;89.80
69189;DHT22;56302;52.322;5.926;2023-02-28T06:44:23;0.70;89.80
69189;DHT22;56302;52.322;5.926;2023-02-28T06:46:49;0.70;89.90
69189;DHT22;56302;52.322;5.926;2023-02-28T06:49:15;0.70;89.70
69189;DHT22;56302;52.322;5.926;2023-02-28T06:51:43;0.70;89.80
69189;DHT22;56302;52.322;5.926;2023-02-28T06:54:12;0.70;89.60
69189;DHT22;56302;52.322;5.926;2023-02-28T06:56:38;0.70;89.50
69189;DHT22;56302;52.322;5.926;2023-02-28T06:59:04;0.60;89.70
69189;DHT22;56302;52.322;5.926;2023-02-28T07:01:30;0.60;90.10
69189;DHT22;56302;52.322;5.926;2023-02-28T07:03:57;0.60;90.30
69189;DHT22;56302;52.322;5.926;2023-02-28T07:06:23;0.60;90.20
69189;DHT22;56302;52.322;5.926;2023-02-28T07:08:49;0.70;89.90
69189;DHT22;56302;52.322;5.926;2023-02-28T07:11:15;0.70;89.90
69189;DHT22;56302;52.322;5.926;2023-02-28T07:13:41;0.70;90.30
69189;DHT22;56302;52.322;5.926;2023-02-28T07:16:09;0.70;90.30
69189;DHT22;56302;52.322;5.926;2023-02-28T07:18:36;0.80;90.20
69189;DHT22;56302;52.322;5.926;2023-02-28T07:21:03;0.80;90.10
69189;DHT22;56302;52.322;5.926;2023-02-28T07:23:29;0.90;89.90
69189;DHT22;56302;52.322;5.926;2023-02-28T07:25:55;0.90;90.00
69189;DHT22;56302;52.322;5.926;2023-02-28T07:28:20;0.90;89.70
69189;DHT22;56302;52.322;5.926;2023-02-28T07:30:46;0.90;89.80
69189;DHT22;56302;52.322;5.926;2023-02-28T07:33:11;0.80;89.80
69189;DHT22;56302;52.322;5.926;2023-02-28T07:35:37;0.80;89.80
69189;DHT22;56302;52.322;5.926;2023-02-28T07:38:03;0.90;90.00
69189;DHT22;56302;52.322;5.926;2023-02-28T07:40:29;1.00;89.80
69189;DHT22;56302;52.322;5.926;2023-02-28T07:42:55;1.10;89.90
69189;DHT22;56302;52.322;5.926;2023-02-28T07:45:20;1.20;89.90
69189;DHT22;56302;52.322;5.926;2023-02-28T07:47:46;1.20;89.60
69189;DHT22;56302;52.322;5.926;2023-02-28T07:50:14;1.30;89.20
69189;DHT22;56302;52.322;5.926;2023-02-28T07:52:40;1.30;88.80
69189;DHT22;56302;52.322;5.926;2023-02-28T07:55:07;1.30;88.60
69189;DHT22;56302;52.322;5.926;2023-02-28T07:57:33;1.40;88.60
69189;DHT22;56302;52.322;5.926;2023-02-28T07:59:59;1.50;88.40
69189;DHT22;56302;52.322;5.926;2023-02-28T08:02:25;1.50;87.90
69189;DHT22;56302;52.322;5.926;2023-02-28T08:04:50;1.50;87.70
69189;DHT22;56302;52.322;5.926;2023-02-28T08:07:17;1.50;87.50
69189;DHT22;56302;52.322;5.926;2023-02-28T08:09:43;1.60;87.50
69189;DHT22;56302;52.322;5.926;2023-02-28T08:12:09;1.60;87.50
69189;DHT22;56302;52.322;5.926;2023-02-28T08:14:36;1.70;87.60
69189;DHT22;56302;52.322;5.926;2023-02-28T08:17:02;1.70;87.80
69189;DHT22;56302;52.322;5.926;2023-02-28T08:19:28;1.80;87.40
69189;DHT22;56302;52.322;5.926;2023-02-28T08:21:54;1.90;87.20
69189;DHT22;56302;52.322;5.926;2023-02-28T08:24:20;2.10;87.10
69189;DHT22;56302;52.322;5.926;2023-02-28T08:26:46;2.20;86.50
69189;DHT22;56302;52.322;5.926;2023-02-28T08:29:11;2.30;86.20
69189;DHT22;56302;52.322;5.926;2023-02-28T08:31:37;2.40;85.10
69189;DHT22;56302;52.322;5.926;2023-02-28T08:34:11;2.40;84.00
69189;DHT22;56302;52.322;5.926;2023-02-28T08:36:37;2.60;84.30
69189;DHT22;56302;52.322;5.926;2023-02-28T08:39:03;2.90;84.00
69189;DHT22;56302;52.322;5.926;2023-02-28T08:41:29;2.90;81.90
69189;DHT22;56302;52.322;5.926;2023-02-28T08:43:54;3.10;81.70
69189;DHT22;56302;52.322;5.926;2023-02-28T08:46:20;3.30;80.60
69189;DHT22;56302;52.322;5.926;2023-02-28T08:48:46;3.50;76.10
69189;DHT22;56302;52.322;5.926;2023-02-28T08:51:16;3.60;76.00
69189;DHT22;56302;52.322;5.926;2023-02-28T08:53:44;3.80;74.70
69189;DHT22;56302;52.322;5.926;2023-02-28T08:56:13;3.80;71.10
69189;DHT22;56302;52.322;5.926;2023-02-28T08:58:39;3.70;72.50
69189;DHT22;56302;52.322;5.926;2023-02-28T09:01:19;3.70;71.10
69189;DHT22;56302;52.322;5.926;2023-02-28T09:03:46;3.50;67.80
69189;DHT22;56302;52.322;5.926;2023-02-28T09:06:13;3.60;67.60
69189;DHT22;56302;52.322;5.926;2023-02-28T09:08:40;3.70;65.90
69189;DHT22;56302;52.322;5.926;2023-02-28T09:11:06;3.80;66.10
69189;DHT22;56302;52.322;5.926;2023-02-28T09:13:32;3.90;64.20
69189;DHT22;56302;52.322;5.926;2023-02-28T09:15:59;4.10;61.50
69189;DHT22;56302;52.322;5.926;2023-02-28T09:18:26;4.10;58.10
69189;DHT22;56302;52.322;5.926;2023-02-28T09:20:52;4.50;58.10
69189;DHT22;56302;52.322;5.926;2023-02-28T09:23:17;4.60;57.80
69189;DHT22;56302;52.322;5.926;2023-02-28T09:25:53;4.50;55.80
69189;DHT22;56302;52.322;5.926;2023-02-28T09:28:19;4.50;58.80
69189;DHT22;56302;52.322;5.926;2023-02-28T09:30:50;4.40;57.60
69189;DHT22;56302;52.322;5.926;2023-02-28T09:33:17;4.20;58.00
69189;DHT22;56302;52.322;5.926;2023-02-28T09:35:43;4.00;58.10
69189;DHT22;56302;52.322;5.926;2023-02-28T09:38:09;4.20;58.40
69189;DHT22;56302;52.322;5.926;2023-02-28T09:40:39;4.10;56.20
69189;DHT22;56302;52.322;5.926;2023-02-28T09:43:06;3.90;58.30
69189;DHT22;56302;52.322;5.926;2023-02-28T09:45:39;4.00;58.10
69189;DHT22;56302;52.322;5.926;2023-02-28T09:48:14;4.10;57.40
69189;DHT22;56302;52.322;5.926;2023-02-28T09:50:42;4.10;55.80
69189;DHT22;56302;52.322;5.926;2023-02-28T09:53:16;4.20;55.00
69189;DHT22;56302;52.322;5.926;2023-02-28T09:55:50;4.20;54.40
69189;DHT22;56302;52.322;5.926;2023-02-28T09:58:28;4.30;54.00
69189;DHT22;56302;52.322;5.926;2023-02-28T10:01:06;4.20;53.90
69189;DHT22;56302;52.322;5.926;2023-02-28T10:03:46;4.10;53.50
69189;DHT22;56302;52.322;5.926;2023-02-28T10:06:18;4.20;53.60
69189;DHT22;56302;52.322;5.926;2023-02-28T10:11:19;4.50;53.60
69189;DHT22;56302;52.322;5.926;2023-02-28T10:13:59;4.60;53.30
69189;DHT22;56302;52.322;5.926;2023-02-28T10:16:40;4.70;51.60
69189;DHT22;56302;52.322;5.926;2023-02-28T10:19:40;4.50;50.40
69189;DHT22;56302;52.322;5.926;2023-02-28T10:24:50;4.50;51.40
69189;DHT22;56302;52.322;5.926;2023-02-28T10:27:19;4.50;50.50
69189;DHT22;56302;52.322;5.926;2023-02-28T10:29:53;4.70;50.90
69189;DHT22;56302;52.322;5.926;2023-02-28T10:32:39;4.60;51.40
69189;DHT22;56302;52.322;5.926;2023-02-28T10:35:18;4.60;50.40
69189;DHT22;56302;52.322;5.926;2023-02-28T10:37:50;4.70;50.90
69189;DHT22;56302;52.322;5.926;2023-02-28T10:43:00;4.60;48.80
69189;DHT22;56302;52.322;5.926;2023-02-28T10:45:28;4.60;50.00
69189;DHT22;56302;52.322;5.926;2023-02-28T10:48:23;4.80;50.10
69189;DHT22;56302;52.322;5.926;2023-02-28T10:50:52;4.90;50.30
69189;DHT22;56302;52.322;5.926;2023-02-28T11:04:20;5.00;48.90
69189;DHT22;56302;52.322;5.926;2023-02-28T11:07:02;5.10;50.50
69189;DHT22;56302;52.322;5.926;2023-02-28T11:09:33;5.10;48.70
69189;DHT22;56302;52.322;5.926;2023-02-28T11:12:02;5.10;48.10
69189;DHT22;56302;52.322;5.926;2023-02-28T11:14:31;5.00;48.00
69189;DHT22;56302;52.322;5.926;2023-02-28T11:17:11;5.40;48.70
69189;DHT22;56302;52.322;5.926;2023-02-28T11:19:44;5.50;50.00
69189;DHT22;56302;52.322;5.926;2023-02-28T11:22:11;5.80;49.30
69189;DHT22;56302;52.322;5.926;2023-02-28T11:24:44;5.70;48.30
69189;DHT22;56302;52.322;5.926;2023-02-28T11:27:47;5.50;48.40
69189;DHT22;56302;52.322;5.926;2023-02-28T11:32:52;5.60;47.80
69189;DHT22;56302;52.322;5.926;2023-02-28T11:35:26;5.70;47.80
69189;DHT22;56302;52.322;5.926;2023-02-28T11:37:52;5.60;47.70
69189;DHT22;56302;52.322;5.926;2023-02-28T11:40:24;5.60;47.90
69189;DHT22;56302;52.322;5.926;2023-02-28T11:43:21;5.70;48.60
69189;DHT22;56302;52.322;5.926;2023-02-28T11:46:20;5.90;48.40
69189;DHT22;56302;52.322;5.926;2023-02-28T11:49:12;5.80;47.20
69189;DHT22;56302;52.322;5.926;2023-02-28T11:54:29;6.10;47.20
69189;DHT22;56302;52.322;5.926;2023-02-28T12:06:00;5.90;48.50
69189;DHT22;56302;52.322;5.926;2023-02-28T12:14:34;5.70;46.60
69189;DHT22;56302;52.322;5.926;2023-02-28T12:17:16;5.70;47.30
69189;DHT22;56302;52.322;5.926;2023-02-28T12:26:06;6.20;48.20
69189;DHT22;56302;52.322;5.926;2023-02-28T12:28:40;6.20;47.90
69189;DHT22;56302;52.322;5.926;2023-02-28T12:31:14;6.10;47.80
69189;DHT22;56302;52.322;5.926;2023-02-28T12:33:48;6.20;47.70
69189;DHT22;56302;52.322;5.926;2023-02-28T12:36:18;5.90;46.10
69189;DHT22;56302;52.322;5.926;2023-02-28T12:39:15;5.80;46.80
69189;DHT22;56302;52.322;5.926;2023-02-28T12:42:01;6.00;48.50
69189;DHT22;56302;52.322;5.926;2023-02-28T12:46:59;5.80;47.60
69189;DHT22;56302;52.322;5.926;2023-02-28T12:51:58;5.70;46.40
69189;DHT22;56302;52.322;5.926;2023-02-28T12:57:36;5.80;48.20
69189;DHT22;56302;52.322;5.926;2023-02-28T13:00:15;5.60;46.20
69189;DHT22;56302;52.322;5.926;2023-02-28T13:02:53;5.60;47.30
69189;DHT22;56302;52.322;5.926;2023-02-28T13:05:46;5.70;47.90
69189;DHT22;56302;52.322;5.926;2023-02-28T13:11:02;5.70;47.00
69189;DHT22;56302;52.322;5.926;2023-02-28T13:13:29;5.70;47.50
69189;DHT22;56302;52.322;5.926;2023-02-28T13:18:33;5.80;48.00
69189;DHT22;56302;52.322;5.926;2023-02-28T13:21:00;5.80;48.40
69189;DHT22;56302;52.322;5.926;2023-02-28T13:23:56;5.80;47.30
69189;DHT22;56302;52.322;5.926;2023-02-28T13:29:27;5.80;47.80
69189;DHT22;56302;52.322;5.926;2023-02-28T13:34:34;5.70;47.70
69189;DHT22;56302;52.322;5.926;2023-02-28T13:39:54;5.80;47.90
69189;DHT22;56302;52.322;5.926;2023-02-28T13:42:46;5.60;47.90
69189;DHT22;56302;52.322;5.926;2023-02-28T13:47:50;5.70;48.40
69189;DHT22;56302;52.322;5.926;2023-02-28T13:58:42;5.70;46.80
69189;DHT22;56302;52.322;5.926;2023-02-28T14:01:14;5.70;47.40
69189;DHT22;56302;52.322;5.926;2023-02-28T14:06:13;5.70;47.50
69189;DHT22;56302;52.322;5.926;2023-02-28T14:08:57;5.80;48.70
69189;DHT22;56302;52.322;5.926;2023-02-28T14:11:31;5.80;48.90
69189;DHT22;56302;52.322;5.926;2023-02-28T14:13:57;5.70;48.10
69189;DHT22;56302;52.322;5.926;2023-02-28T14:16:35;5.70;47.20
69189;DHT22;56302;52.322;5.926;2023-02-28T14:19:21;5.70;47.60
69189;DHT22;56302;52.322;5.926;2023-02-28T14:22:04;5.80;47.60
69189;DHT22;56302;52.322;5.926;2023-02-28T14:27:24;5.90;48.40
69189;DHT22;56302;52.322;5.926;2023-02-28T14:32:59;5.80;47.70
69189;DHT22;56302;52.322;5.926;2023-02-28T14:35:39;5.80;47.70
69189;DHT22;56302;52.322;5.926;2023-02-28T14:38:11;5.80;47.20
69189;DHT22;56302;52.322;5.926;2023-02-28T14:40:39;5.80;47.10
69189;DHT22;56302;52.322;5.926;2023-02-28T14:43:16;5.80;47.30
69189;DHT22;56302;52.322;5.926;2023-02-28T14:45:44;5.80;47.60
69189;DHT22;56302;52.322;5.926;2023-02-28T14:48:15;5.70;47.60
69189;DHT22;56302;52.322;5.926;2023-02-28T14:50:49;5.70;48.10
69189;DHT22;56302;52.322;5.926;2023-02-28T14:53:19;5.70;47.10
69189;DHT22;56302;52.322;5.926;2023-02-28T14:55:47;5.70;47.50
69189;DHT22;56302;52.322;5.926;2023-02-28T14:58:24;5.70;48.30
69189;DHT22;56302;52.322;5.926;2023-02-28T15:00:51;5.70;48.10
69189;DHT22;56302;52.322;5.926;2023-02-28T15:06:04;5.80;48.50
69189;DHT22;56302;52.322;5.926;2023-02-28T15:08:31;5.70;49.30
69189;DHT22;56302;52.322;5.926;2023-02-28T15:11:21;5.70;49.40
69189;DHT22;56302;52.322;5.926;2023-02-28T15:13:51;5.80;49.00
69189;DHT22;56302;52.322;5.926;2023-02-28T15:16:39;5.70;48.70
69189;DHT22;56302;52.322;5.926;2023-02-28T15:19:08;5.70;48.60
69189;DHT22;56302;52.322;5.926;2023-02-28T15:21:40;5.70;49.10
69189;DHT22;56302;52.322;5.926;2023-02-28T15:24:11;5.70;49.70
69189;DHT22;56302;52.322;5.926;2023-02-28T15:26:45;5.70;50.00
69189;DHT22;56302;52.322;5.926;2023-02-28T15:29:20;5.60;50.20
69189;DHT22;56302;52.322;5.926;2023-02-28T15:32:06;5.60;50.40
69189;DHT22;56302;52.322;5.926;2023-02-28T15:34:39;5.50;50.60
69189;DHT22;56302;52.322;5.926;2023-02-28T15:37:46;5.50;50.60
69189;DHT22;56302;52.322;5.926;2023-02-28T15:40:29;5.50;50.50
69189;DHT22;56302;52.322;5.926;2023-02-28T15:45:36;5.50;51.30
69189;DHT22;56302;52.322;5.926;2023-02-28T15:48:50;5.40;51.30
69189;DHT22;56302;52.322;5.926;2023-02-28T15:51:01;5.40;51.50
69189;DHT22;56302;52.322;5.926;2023-02-28T15:53:35;5.40;51.00
69189;DHT22;56302;52.322;5.926;2023-02-28T15:56:19;5.40;51.30
69189;DHT22;56302;52.322;5.926;2023-02-28T15:58:46;5.40;52.20
69189;DHT22;56302;52.322;5.926;2023-02-28T16:01:24;5.30;52.00
69189;DHT22;56302;52.322;5.926;2023-02-28T16:03:53;5.30;52.20
69189;DHT22;56302;52.322;5.926;2023-02-28T16:08:57;5.20;51.80
69189;DHT22;56302;52.322;5.926;2023-02-28T16:11:22;5.20;51.50
69189;DHT22;56302;52.322;5.926;2023-02-28T16:13:49;5.10;51.90
69189;DHT22;56302;52.322;5.926;2023-02-28T16:16:20;5.10;52.60
69189;DHT22;56302;52.322;5.926;2023-02-28T16:18:47;5.10;52.80
69189;DHT22;56302;52.322;5.926;2023-02-28T16:21:12;5.10;52.60
69189;DHT22;56302;52.322;5.926;2023-02-28T16:23:38;5.00;53.10
69189;DHT22;56302;52.322;5.926;2023-02-28T16:26:04;5.00;53.40
69189;DHT22;56302;52.322;5.926;2023-02-28T16:28:33;4.90;53.20
69189;DHT22;56302;52.322;5.926;2023-02-28T16:31:00;4.90;53.40
69189;DHT22;56302;52.322;5.926;2023-02-28T16:33:28;4.90;53.40
69189;DHT22;56302;52.322;5.926;2023-02-28T16:35:54;4.80;53.50
69189;DHT22;56302;52.322;5.926;2023-02-28T16:38:20;4.70;53.20
69189;DHT22;56302;52.322;5.926;2023-02-28T16:40:46;4.70;54.00
69189;DHT22;56302;52.322;5.926;2023-02-28T16:43:19;4.60;54.50
69189;DHT22;56302;52.322;5.926;2023-02-28T16:45:47;4.60;54.50
69189;DHT22;56302;52.322;5.926;2023-02-28T16:48:15;4.50;54.30
69189;DHT22;56302;52.322;5.926;2023-02-28T16:50:42;4.50;54.20
69189;DHT22;56302;52.322;5.926;2023-02-28T16:53:09;4.40;54.40
69189;DHT22;56302;52.322;5.926;2023-02-28T16:55:35;4.40;54.70
69189;DHT22;56302;52.322;5.926;2023-02-28T16:58:02;4.30;55.30
69189;DHT22;56302;52.322;5.926;2023-02-28T17:00:30;4.30;55.40
69189;DHT22;56302;52.322;5.926;2023-02-28T17:02:57;4.20;55.30
69189;DHT22;56302;52.322;5.926;2023-02-28T17:05:23;4.10;55.70
69189;DHT22;56302;52.322;5.926;2023-02-28T17:07:49;4.10;55.60
69189;DHT22;56302;52.322;5.926;2023-02-28T17:10:21;4.10;55.50
69189;DHT22;56302;52.322;5.926;2023-02-28T17:12:48;4.00;55.80
69189;DHT22;56302;52.322;5.926;2023-02-28T17:15:15;4.00;56.10
69189;DHT22;56302;52.322;5.926;2023-02-28T17:17:41;3.90;57.10
69189;DHT22;56302;52.322;5.926;2023-02-28T17:20:15;3.80;58.00
69189;DHT22;56302;52.322;5.926;2023-02-28T17:22:41;3.70;58.20
69189;DHT22;56302;52.322;5.926;2023-02-28T17:25:07;3.60;58.20
69189;DHT22;56302;52.322;5.926;2023-02-28T17:27:34;3.50;58.80
69189;DHT22;56302;52.322;5.926;2023-02-28T17:29:59;3.40;59.40
69189;DHT22;56302;52.322;5.926;2023-02-28T17:32:26;3.20;60.30
69189;DHT22;56302;52.322;5.926;2023-02-28T17:34:53;2.90;60.60
69189;DHT22;56302;52.322;5.926;2023-02-28T17:37:18;2.50;61.60
69189;DHT22;56302;52.322;5.926;2023-02-28T17:39:44;2.20;63.00
69189;DHT22;56302;52.322;5.926;2023-02-28T17:42:09;2.10;63.80
69189;DHT22;56302;52.322;5.926;2023-02-28T17:44:35;2.10;64.20
69189;DHT22;56302;52.322;5.926;2023-02-28T17:47:00;1.90;65.20
69189;DHT22;56302;52.322;5.926;2023-02-28T17:49:26;1.80;65.40
69189;DHT22;56302;52.322;5.926;2023-02-28T17:51:52;1.90;65.60
69189;DHT22;56302;52.322;5.926;2023-02-28T17:54:17;2.00;65.60
69189;DHT22;56302;52.322;5.926;2023-02-28T17:56:43;2.20;65.30